createdAt,value
2022-08-31T00:00:30.505Z,21.58
2022-08-31T00:03:17.739Z,21.49
2022-08-31T00:05:45.998Z,21.44
2022-08-31T00:08:14.072Z,21.39
2022-08-31T00:10:46.267Z,21.34
2022-08-31T00:13:17.975Z,21.32
2022-08-31T00:15:46.486Z,21.27
2022-08-31T00:18:16.399Z,21.24
2022-08-31T00:20:44.881Z,21.20
2022-08-31T00:23:14.756Z,21.16
2022-08-31T00:25:45.451Z,21.10
2022-08-31T00:28:14.703Z,21.00
2022-08-31T00:30:43.356Z,20.94
2022-08-31T00:33:11.643Z,20.89
2022-08-31T00:35:42.693Z,20.88
2022-08-31T00:38:12.018Z,20.85
2022-08-31T00:40:44.433Z,20.83
2022-08-31T00:43:13.994Z,20.79
2022-08-31T00:45:42.111Z,20.73
2022-08-31T00:48:10.198Z,20.68
2022-08-31T00:50:38.284Z,20.63
2022-08-31T00:53:07.720Z,20.57
2022-08-31T00:55:37.885Z,20.48
2022-08-31T00:58:10.128Z,20.41
2022-08-31T01:00:38.994Z,20.31
2022-08-31T01:03:09.083Z,20.25
2022-08-31T01:05:38.439Z,20.18
2022-08-31T01:08:08.581Z,20.10
2022-08-31T01:10:39.678Z,20.02
2022-08-31T01:13:09.003Z,19.94
2022-08-31T01:15:38.900Z,19.87
2022-08-31T01:18:07.941Z,19.81
2022-08-31T01:20:48.973Z,19.74
2022-08-31T01:23:24.046Z,19.63
2022-08-31T01:25:53.542Z,19.59
2022-08-31T01:28:21.713Z,19.55
2022-08-31T01:31:04.274Z,19.48
2022-08-31T01:33:35.458Z,19.41
2022-08-31T01:36:04.821Z,19.36
2022-08-31T01:38:35.105Z,19.32
2022-08-31T01:41:04.221Z,19.28
2022-08-31T01:43:34.615Z,19.20
2022-08-31T01:46:03.416Z,19.13
2022-08-31T01:48:33.073Z,19.09
2022-08-31T01:51:03.491Z,19.03
2022-08-31T01:53:32.198Z,19.00
2022-08-31T01:56:01.758Z,18.93
2022-08-31T01:58:30.033Z,18.91
2022-08-31T02:01:39.060Z,18.84
2022-08-31T02:04:10.125Z,18.84
2022-08-31T02:06:38.824Z,18.80
2022-08-31T02:09:07.925Z,18.76
2022-08-31T02:11:38.931Z,18.71
2022-08-31T02:14:08.075Z,18.68
2022-08-31T02:16:37.476Z,18.67
2022-08-31T02:19:06.134Z,18.66
2022-08-31T02:21:36.859Z,18.63
2022-08-31T02:24:06.373Z,18.62
2022-08-31T02:26:34.503Z,18.58
2022-08-31T02:29:07.251Z,18.54
2022-08-31T02:31:35.564Z,18.51
2022-08-31T02:34:04.198Z,18.46
2022-08-31T02:36:34.790Z,18.44
2022-08-31T02:39:05.933Z,18.42
2022-08-31T02:41:34.929Z,18.37
2022-08-31T02:44:03.592Z,18.33
2022-08-31T02:46:36.324Z,18.30
2022-08-31T02:49:21.722Z,18.26
2022-08-31T02:51:50.674Z,18.24
2022-08-31T02:54:19.008Z,18.19
2022-08-31T02:56:48.022Z,18.15
2022-08-31T02:59:20.703Z,18.13
2022-08-31T03:01:52.881Z,18.10
2022-08-31T03:04:21.277Z,18.08
2022-08-31T03:06:49.366Z,18.05
2022-08-31T03:09:17.606Z,17.97
2022-08-31T03:11:46.905Z,17.95
2022-08-31T03:14:15.396Z,17.95
2022-08-31T03:16:43.681Z,17.91
2022-08-31T03:19:13.263Z,17.85
2022-08-31T03:21:41.322Z,17.82
2022-08-31T03:24:10.472Z,17.81
2022-08-31T03:26:38.973Z,17.79
2022-08-31T03:29:07.298Z,17.75
2022-08-31T03:31:38.076Z,17.70
2022-08-31T03:34:06.474Z,17.68
2022-08-31T03:36:35.917Z,17.67
2022-08-31T03:39:04.655Z,17.64
2022-08-31T03:41:32.962Z,17.62
2022-08-31T03:44:02.816Z,17.59
2022-08-31T03:46:33.711Z,17.55
2022-08-31T03:49:07.665Z,17.53
2022-08-31T03:51:37.177Z,17.50
2022-08-31T03:54:05.799Z,17.48
2022-08-31T03:56:34.390Z,17.46
2022-08-31T03:59:02.534Z,17.41
2022-08-31T04:01:50.632Z,17.38
2022-08-31T04:04:37.027Z,17.34
2022-08-31T04:07:25.385Z,17.30
2022-08-31T04:10:13.018Z,17.24
2022-08-31T04:12:59.456Z,17.21
2022-08-31T04:15:37.916Z,17.17
2022-08-31T04:18:24.549Z,17.13
2022-08-31T04:20:52.638Z,17.11
2022-08-31T04:23:22.037Z,17.07
2022-08-31T04:25:52.417Z,17.04
2022-08-31T04:28:20.505Z,17.03
2022-08-31T04:30:49.421Z,17.00
2022-08-31T04:33:18.529Z,16.96
2022-08-31T04:35:46.826Z,16.93
2022-08-31T04:38:14.918Z,16.93
2022-08-31T04:40:45.342Z,16.91
2022-08-31T04:43:13.545Z,16.87
2022-08-31T04:45:45.143Z,16.85
2022-08-31T04:48:15.417Z,16.81
2022-08-31T04:50:44.377Z,16.78
2022-08-31T04:53:12.998Z,16.75
2022-08-31T04:55:42.003Z,16.75
2022-08-31T04:58:13.800Z,16.73
2022-08-31T05:00:43.392Z,16.72
2022-08-31T05:03:52.945Z,16.70
2022-08-31T05:06:22.753Z,16.74
2022-08-31T05:08:54.578Z,16.74
2022-08-31T05:11:25.144Z,16.76
2022-08-31T05:13:55.102Z,16.78
2022-08-31T05:16:23.361Z,16.79
2022-08-31T05:18:52.637Z,16.82
2022-08-31T05:21:28.369Z,16.86
2022-08-31T05:23:57.821Z,16.88
2022-08-31T05:26:27.462Z,16.91
2022-08-31T05:28:57.469Z,16.98
2022-08-31T05:31:29.207Z,17.02
2022-08-31T05:33:59.938Z,17.09
2022-08-31T05:36:37.889Z,17.13
2022-08-31T05:39:11.781Z,17.19
2022-08-31T05:41:40.604Z,17.25
2022-08-31T05:44:11.089Z,17.32
2022-08-31T05:46:41.022Z,17.40
2022-08-31T05:49:11.555Z,17.46
2022-08-31T05:51:40.744Z,17.53
2022-08-31T05:54:10.798Z,17.60
2022-08-31T05:56:42.012Z,17.68
2022-08-31T05:59:14.567Z,17.78
2022-08-31T06:01:43.249Z,17.85
2022-08-31T06:04:14.644Z,17.95
2022-08-31T06:06:44.514Z,18.06
2022-08-31T06:09:18.063Z,18.17
2022-08-31T06:11:46.758Z,18.29
2022-08-31T06:14:18.819Z,18.39
2022-08-31T06:16:48.883Z,18.51
2022-08-31T06:19:20.018Z,18.63
2022-08-31T06:21:51.407Z,18.74
2022-08-31T06:24:24.518Z,18.85
2022-08-31T06:26:58.293Z,19.01
2022-08-31T06:29:34.988Z,19.15
2022-08-31T06:32:07.910Z,19.30
2022-08-31T06:34:51.245Z,19.44
2022-08-31T06:38:32.040Z,19.61
2022-08-31T06:42:07.575Z,19.80
2022-08-31T06:46:01.914Z,20.00
2022-08-31T06:48:51.895Z,20.20
2022-08-31T06:52:55.811Z,20.39
2022-08-31T06:55:29.492Z,20.61
2022-08-31T06:58:28.889Z,20.78
2022-08-31T07:01:36.399Z,21.00
2022-08-31T07:04:41.292Z,21.23
2022-08-31T07:07:11.471Z,21.40
2022-08-31T07:09:41.385Z,21.58
2022-08-31T07:12:10.564Z,21.75
2022-08-31T07:14:38.907Z,21.94
2022-08-31T07:17:08.324Z,22.09
2022-08-31T07:19:36.421Z,22.25
2022-08-31T07:22:10.479Z,22.53
2022-08-31T07:24:52.201Z,23.07
2022-08-31T07:27:20.498Z,23.69
2022-08-31T07:29:53.266Z,24.30
2022-08-31T07:32:22.975Z,24.71
2022-08-31T07:34:58.548Z,25.02
2022-08-31T07:37:50.802Z,25.33
2022-08-31T07:40:41.222Z,25.61
2022-08-31T07:43:11.803Z,25.77
2022-08-31T07:45:41.377Z,25.98
2022-08-31T07:48:10.427Z,26.19
2022-08-31T07:51:14.550Z,26.23
2022-08-31T07:53:52.803Z,26.34
2022-08-31T07:56:39.865Z,26.21
2022-08-31T07:59:15.016Z,26.31
2022-08-31T08:01:45.180Z,26.25
2022-08-31T08:04:15.537Z,26.33
2022-08-31T08:07:18.579Z,26.35
2022-08-31T08:10:14.144Z,26.30
2022-08-31T08:13:05.096Z,26.24
2022-08-31T08:16:06.297Z,26.21
2022-08-31T08:18:53.103Z,26.27
2022-08-31T08:21:25.709Z,26.34
2022-08-31T08:23:54.186Z,26.31
2022-08-31T08:26:53.465Z,26.23
2022-08-31T08:29:40.625Z,26.23
2022-08-31T08:32:17.256Z,26.33
2022-08-31T08:34:45.934Z,26.49
2022-08-31T08:37:15.052Z,26.56
2022-08-31T08:39:43.931Z,26.66
2022-08-31T08:42:17.623Z,26.94
2022-08-31T08:44:46.026Z,27.09
2022-08-31T08:47:20.822Z,27.30
2022-08-31T08:49:58.731Z,27.57
2022-08-31T08:52:31.729Z,27.69
2022-08-31T08:55:03.793Z,27.87
2022-08-31T08:57:36.175Z,28.10
2022-08-31T09:00:11.222Z,28.30
2022-08-31T09:02:46.822Z,28.38
2022-08-31T09:05:46.165Z,28.46
2022-08-31T09:09:11.724Z,28.37
2022-08-31T09:11:55.748Z,28.19
2022-08-31T09:14:48.174Z,28.25
2022-08-31T09:17:33.638Z,28.33
2022-08-31T09:20:04.202Z,28.18
2022-08-31T09:22:50.495Z,28.13
2022-08-31T09:25:26.629Z,28.18
2022-08-31T09:28:07.494Z,28.50
2022-08-31T09:30:43.439Z,28.76
2022-08-31T09:33:19.741Z,29.09
2022-08-31T09:35:50.822Z,29.32
2022-08-31T09:38:29.114Z,29.64
2022-08-31T09:40:58.048Z,29.87
2022-08-31T09:43:35.077Z,29.87
2022-08-31T09:46:08.496Z,29.94
2022-08-31T09:48:43.479Z,30.18
2022-08-31T09:51:20.381Z,30.47
2022-08-31T09:54:06.259Z,30.59
2022-08-31T09:56:55.028Z,30.68
2022-08-31T09:59:38.559Z,30.59
2022-08-31T10:02:12.142Z,30.26
2022-08-31T10:04:52.352Z,30.09
2022-08-31T10:07:37.927Z,30.32
2022-08-31T10:10:28.128Z,30.20
2022-08-31T10:13:06.835Z,30.16
2022-08-31T10:15:41.261Z,30.27
2022-08-31T10:18:16.423Z,30.44
2022-08-31T10:20:50.773Z,30.62
2022-08-31T10:23:22.316Z,30.42
2022-08-31T10:25:58.402Z,30.23
2022-08-31T10:28:33.886Z,30.31
2022-08-31T10:31:04.788Z,30.45
2022-08-31T10:33:54.358Z,30.74
2022-08-31T10:36:25.463Z,30.97
2022-08-31T10:38:55.151Z,30.93
2022-08-31T10:41:29.030Z,30.84
2022-08-31T10:44:05.516Z,30.79
2022-08-31T10:46:35.632Z,31.12
2022-08-31T10:49:06.250Z,31.52
2022-08-31T10:51:40.814Z,31.74
2022-08-31T10:54:28.990Z,31.71
2022-08-31T10:57:08.190Z,31.80
2022-08-31T10:59:40.870Z,32.00
2022-08-31T11:02:36.865Z,32.25
2022-08-31T11:05:22.930Z,32.26
2022-08-31T11:08:00.747Z,32.43
2022-08-31T11:10:42.489Z,32.66
2022-08-31T11:13:20.921Z,32.44
2022-08-31T11:16:07.490Z,32.32
2022-08-31T11:19:15.471Z,32.58
2022-08-31T11:22:21.761Z,32.73
2022-08-31T11:25:20.781Z,32.76
2022-08-31T11:27:54.138Z,33.06
2022-08-31T11:30:26.702Z,33.27
2022-08-31T11:32:58.954Z,33.25
2022-08-31T11:36:07.636Z,33.07
2022-08-31T11:39:15.175Z,33.20
2022-08-31T11:41:46.919Z,33.47
2022-08-31T11:45:01.027Z,33.48
2022-08-31T11:47:44.748Z,33.57
2022-08-31T11:50:29.249Z,33.78
2022-08-31T11:53:00.228Z,34.12
2022-08-31T11:55:31.435Z,34.57
2022-08-31T11:58:21.057Z,35.07
2022-08-31T12:00:58.599Z,35.47
2022-08-31T12:03:52.510Z,35.71
2022-08-31T12:07:07.112Z,35.71
2022-08-31T12:10:34.045Z,35.86
2022-08-31T12:13:41.174Z,35.78
2022-08-31T12:16:20.983Z,35.96
2022-08-31T12:19:08.743Z,35.97
2022-08-31T12:22:04.569Z,36.08
2022-08-31T12:25:28.116Z,36.32
2022-08-31T12:28:07.763Z,36.23
2022-08-31T12:30:37.393Z,36.39
2022-08-31T12:33:11.051Z,36.66
2022-08-31T12:35:39.756Z,36.67
2022-08-31T12:38:10.557Z,36.58
2022-08-31T12:40:44.810Z,36.53
2022-08-31T12:43:18.171Z,36.62
2022-08-31T12:46:12.018Z,36.46
2022-08-31T12:48:54.163Z,36.63
2022-08-31T12:51:36.915Z,36.56
2022-08-31T12:54:35.309Z,36.47
2022-08-31T12:57:13.334Z,36.30
2022-08-31T13:00:00.514Z,36.13
2022-08-31T13:02:34.932Z,35.77
2022-08-31T13:05:04.310Z,35.59
2022-08-31T13:07:35.671Z,35.18
2022-08-31T13:10:09.567Z,34.84
2022-08-31T13:12:39.278Z,34.61
2022-08-31T13:15:21.854Z,34.64
2022-08-31T13:17:54.150Z,34.66
2022-08-31T13:20:26.676Z,34.67
2022-08-31T13:23:02.581Z,34.78
2022-08-31T13:25:38.420Z,34.73
2022-08-31T13:28:24.624Z,34.56
2022-08-31T13:31:03.571Z,34.59
2022-08-31T13:33:35.586Z,34.66
2022-08-31T13:36:09.918Z,34.60
2022-08-31T13:38:53.321Z,34.41
2022-08-31T13:41:27.577Z,34.48
2022-08-31T13:44:02.765Z,34.61
2022-08-31T13:46:43.040Z,34.80
2022-08-31T13:49:35.490Z,34.97
2022-08-31T13:52:05.597Z,34.98
2022-08-31T13:54:36.385Z,34.60
2022-08-31T13:57:19.702Z,34.26
2022-08-31T13:59:48.976Z,34.29
2022-08-31T14:02:37.348Z,34.26
2022-08-31T14:05:12.904Z,34.07
2022-08-31T14:07:55.877Z,33.77
2022-08-31T14:10:26.458Z,33.61
2022-08-31T14:12:58.610Z,33.76
2022-08-31T14:15:36.398Z,33.73
2022-08-31T14:18:26.169Z,33.56
2022-08-31T14:21:23.525Z,33.31
2022-08-31T14:23:55.089Z,33.25
2022-08-31T14:26:26.552Z,33.25
2022-08-31T14:28:58.542Z,33.06
2022-08-31T14:31:29.947Z,33.03
2022-08-31T14:34:20.353Z,33.12
2022-08-31T14:36:54.041Z,33.21
2022-08-31T14:39:25.000Z,33.18
2022-08-31T14:41:55.404Z,33.06
2022-08-31T14:44:27.200Z,33.01
2022-08-31T14:46:55.646Z,33.16
2022-08-31T14:49:24.915Z,33.23
2022-08-31T14:51:55.167Z,33.20
2022-08-31T14:54:24.959Z,33.20
2022-08-31T14:56:56.247Z,33.13
2022-08-31T14:59:24.655Z,33.06
2022-08-31T15:01:53.692Z,32.96
2022-08-31T15:04:22.328Z,32.87
2022-08-31T15:06:55.105Z,32.89
2022-08-31T15:09:24.825Z,32.83
2022-08-31T15:11:53.161Z,32.84
2022-08-31T15:14:22.402Z,32.73
2022-08-31T15:16:51.435Z,32.52
2022-08-31T15:19:19.715Z,32.46
2022-08-31T15:22:02.870Z,32.43
2022-08-31T15:24:33.007Z,32.29
2022-08-31T15:27:01.624Z,32.11
2022-08-31T15:29:30.599Z,32.00
2022-08-31T15:31:59.865Z,31.89
2022-08-31T15:34:31.238Z,31.83
2022-08-31T15:37:02.505Z,31.67
2022-08-31T15:39:36.220Z,31.63
2022-08-31T15:42:09.414Z,31.61
2022-08-31T15:44:38.507Z,31.46
2022-08-31T15:47:26.075Z,31.21
2022-08-31T15:49:56.042Z,31.15
2022-08-31T15:52:27.812Z,31.11
2022-08-31T15:54:58.349Z,31.06
2022-08-31T15:57:26.707Z,31.00
2022-08-31T15:59:55.060Z,30.89
2022-08-31T16:02:23.466Z,30.80
2022-08-31T16:04:52.033Z,30.71
2022-08-31T16:07:23.335Z,30.55
2022-08-31T16:09:51.663Z,30.38
2022-08-31T16:12:23.394Z,30.31
2022-08-31T16:14:52.399Z,30.23
2022-08-31T16:17:20.711Z,30.23
2022-08-31T16:19:49.465Z,30.20
2022-08-31T16:22:18.843Z,30.16
2022-08-31T16:24:49.030Z,30.06
2022-08-31T16:27:19.756Z,30.05
2022-08-31T16:29:50.976Z,30.02
2022-08-31T16:32:19.828Z,29.95
2022-08-31T16:34:49.169Z,29.80
2022-08-31T16:37:17.399Z,29.70
2022-08-31T16:39:47.330Z,29.65
2022-08-31T16:42:16.249Z,29.50
2022-08-31T16:44:46.792Z,29.37
2022-08-31T16:47:19.104Z,29.29
2022-08-31T16:49:47.044Z,29.16
2022-08-31T16:52:21.344Z,28.90
2022-08-31T16:54:51.095Z,28.76
2022-08-31T16:57:23.643Z,28.73
2022-08-31T16:59:52.415Z,28.71
2022-08-31T17:02:23.228Z,28.62
2022-08-31T17:04:53.457Z,28.55
2022-08-31T17:07:23.726Z,28.48
2022-08-31T17:09:55.976Z,28.34
2022-08-31T17:12:27.367Z,28.25
2022-08-31T17:14:56.222Z,28.23
2022-08-31T17:17:27.722Z,28.13
2022-08-31T17:19:57.677Z,28.03
2022-08-31T17:22:32.466Z,27.94
2022-08-31T17:25:03.108Z,27.76
2022-08-31T17:27:33.542Z,27.64
2022-08-31T17:30:06.320Z,27.47
2022-08-31T17:32:44.583Z,27.36
2022-08-31T17:35:18.448Z,27.20
2022-08-31T17:37:49.211Z,27.09
2022-08-31T17:40:17.821Z,26.97
2022-08-31T17:42:46.313Z,26.89
2022-08-31T17:45:15.660Z,26.76
2022-08-31T17:47:45.463Z,26.61
2022-08-31T17:50:17.232Z,26.50
2022-08-31T17:52:47.454Z,26.43
2022-08-31T17:55:16.054Z,26.36
2022-08-31T17:57:45.102Z,26.23
2022-08-31T18:00:16.012Z,26.18
2022-08-31T18:02:46.146Z,26.11
2022-08-31T18:05:16.234Z,26.04
2022-08-31T18:07:44.611Z,25.90
2022-08-31T18:10:14.880Z,25.83
2022-08-31T18:12:43.460Z,25.75
2022-08-31T18:15:13.945Z,25.63
2022-08-31T18:17:43.125Z,25.52
2022-08-31T18:20:13.344Z,25.43
2022-08-31T18:22:42.038Z,25.39
2022-08-31T18:25:11.550Z,25.35
2022-08-31T18:27:39.956Z,25.28
2022-08-31T18:30:10.028Z,25.21
2022-08-31T18:32:38.361Z,25.13
2022-08-31T18:35:17.601Z,25.03
2022-08-31T18:37:46.088Z,24.93
2022-08-31T18:40:31.880Z,24.88
2022-08-31T18:43:17.898Z,24.84
2022-08-31T18:45:49.334Z,24.75
2022-08-31T18:48:26.653Z,24.71
2022-08-31T18:50:59.144Z,24.63
2022-08-31T18:53:30.290Z,24.54
2022-08-31T18:56:00.734Z,24.50
2022-08-31T18:58:30.089Z,24.42
2022-08-31T19:00:59.485Z,24.40
2022-08-31T19:03:28.745Z,24.32
2022-08-31T19:05:58.480Z,24.24
2022-08-31T19:08:27.163Z,24.16
2022-08-31T19:10:58.160Z,24.09
2022-08-31T19:13:31.356Z,24.02
2022-08-31T19:16:03.559Z,23.98
2022-08-31T19:18:34.190Z,23.91
2022-08-31T19:21:14.388Z,23.80
2022-08-31T19:23:43.554Z,23.73
2022-08-31T19:26:12.111Z,23.67
2022-08-31T19:28:41.060Z,23.64
2022-08-31T19:31:11.659Z,23.59
2022-08-31T19:33:40.168Z,23.57
2022-08-31T19:36:08.840Z,23.53
2022-08-31T19:38:39.891Z,23.49
2022-08-31T19:41:15.732Z,23.42
2022-08-31T19:43:52.228Z,23.36
2022-08-31T19:46:26.465Z,23.30
2022-08-31T19:48:59.212Z,23.26
2022-08-31T19:51:29.821Z,23.23
2022-08-31T19:54:00.961Z,23.17
2022-08-31T19:56:31.306Z,23.12
2022-08-31T19:59:00.593Z,23.14
2022-08-31T20:01:34.074Z,23.11
2022-08-31T20:04:04.314Z,23.09
2022-08-31T20:06:32.867Z,23.07
2022-08-31T20:09:02.735Z,23.03
2022-08-31T20:11:31.635Z,22.98
2022-08-31T20:14:01.163Z,22.93
2022-08-31T20:16:35.683Z,22.91
2022-08-31T20:19:05.977Z,22.85
2022-08-31T20:21:36.347Z,22.79
2022-08-31T20:24:09.131Z,22.70
2022-08-31T20:26:47.236Z,22.63
2022-08-31T20:29:19.213Z,22.61
2022-08-31T20:31:49.721Z,22.55
2022-08-31T20:34:21.819Z,22.53
2022-08-31T20:36:52.373Z,22.48
2022-08-31T20:39:24.989Z,22.42
2022-08-31T20:41:56.259Z,22.35
2022-08-31T20:44:52.167Z,22.24
2022-08-31T20:47:37.743Z,22.19
2022-08-31T20:50:11.377Z,22.13
2022-08-31T20:52:40.106Z,22.09
2022-08-31T20:55:12.429Z,22.07
2022-08-31T20:57:40.970Z,22.05
2022-08-31T21:00:11.240Z,22.05
2022-08-31T21:02:40.730Z,22.05
2022-08-31T21:05:37.433Z,22.04
2022-08-31T21:08:00.006Z,21.98
2022-08-31T21:10:37.079Z,21.93
2022-08-31T21:13:08.720Z,21.88
2022-08-31T21:15:41.921Z,21.85
2022-08-31T21:18:10.137Z,21.79
2022-08-31T21:20:38.233Z,21.75
2022-08-31T21:23:12.624Z,21.76
2022-08-31T21:25:44.919Z,21.72
2022-08-31T21:28:14.658Z,21.66
2022-08-31T21:30:42.806Z,21.64
2022-08-31T21:33:10.874Z,21.63
2022-08-31T21:35:38.928Z,21.62
2022-08-31T21:38:07.439Z,21.59
2022-08-31T21:40:37.091Z,21.55
2022-08-31T21:43:06.541Z,21.52
2022-08-31T21:45:34.568Z,21.50
2022-08-31T21:48:02.677Z,21.47
2022-08-31T21:50:30.755Z,21.45
2022-08-31T21:53:00.514Z,21.42
2022-08-31T21:55:28.904Z,21.38
2022-08-31T21:57:57.032Z,21.32
2022-08-31T22:00:29.550Z,21.31
2022-08-31T22:02:58.493Z,21.28
2022-08-31T22:05:30.171Z,21.27
2022-08-31T22:07:58.272Z,21.27
2022-08-31T22:10:26.905Z,21.23
2022-08-31T22:12:54.951Z,21.20
2022-08-31T22:15:24.043Z,21.19
2022-08-31T22:18:15.453Z,21.15
2022-08-31T22:20:43.098Z,21.13
2022-08-31T22:23:12.335Z,21.09
2022-08-31T22:25:40.510Z,21.06
2022-08-31T22:28:10.165Z,21.03
2022-08-31T22:30:38.242Z,20.99
2022-08-31T22:33:07.663Z,20.92
2022-08-31T22:35:40.066Z,20.91
2022-08-31T22:38:09.131Z,20.88
2022-08-31T22:40:39.421Z,20.86
2022-08-31T22:43:07.745Z,20.84
2022-08-31T22:45:35.863Z,20.83
2022-08-31T22:48:04.264Z,20.81
2022-08-31T22:50:35.475Z,20.81
2022-08-31T22:53:03.882Z,20.78
2022-08-31T22:55:31.882Z,20.76
2022-08-31T22:57:59.917Z,20.77
2022-08-31T23:00:27.999Z,20.77
2022-08-31T23:02:56.002Z,20.73
2022-08-31T23:05:24.511Z,20.72
2022-08-31T23:07:54.738Z,20.71
2022-08-31T23:10:24.179Z,20.70
2022-08-31T23:12:52.551Z,20.68
2022-08-31T23:15:24.033Z,20.66
2022-08-31T23:17:53.468Z,20.63
2022-08-31T23:20:24.611Z,20.60
2022-08-31T23:22:55.318Z,20.58
2022-08-31T23:25:25.013Z,20.54
2022-08-31T23:27:53.731Z,20.51
2022-08-31T23:30:25.640Z,20.49
2022-08-31T23:32:53.978Z,20.47
2022-08-31T23:35:24.548Z,20.45
2022-08-31T23:37:54.345Z,20.43
2022-08-31T23:40:22.446Z,20.37
2022-08-31T23:42:50.709Z,20.33
2022-08-31T23:45:19.294Z,20.30
2022-08-31T23:47:51.590Z,20.26
2022-08-31T23:50:19.661Z,20.22
2022-08-31T23:52:48.701Z,20.20
2022-08-31T23:55:18.945Z,20.16
2022-08-31T23:57:48.454Z,20.13
